Terminal Aerodrome Forecast
Issued by NWS

Home | Current Version | Previous Version | Graphics & Text | Print | Product List | Glossary On
Versions: 1 2 3 4 5 6 7 8 9 10 11 12 13 14 15 16 17 18 19 20 21 22 23 24 25 26 27 28 29 30 31 32 33 34 35 36 37 38 39 40 41 42 43
000
FTUS43 KGRB 251700
TAFRHI
TAF
KRHI 251732Z 2518/2618 29006KT P6SM -SN BKN017
      TEMPO 2518/2521 SCT017
     FM252100 26005KT P6SM SCT017 BKN035
     FM252300 21003KT P6SM BKN025
     FM260200 00000KT P6SM BKN250
     FM260700 00000KT 4SM BR BKN250
     FM261000 00000KT 1 1/2SM BR SCT007 SCT120
     FM261600 VRB03KT 6SM HZ SCT080 BKN150=

USA.gov is the U.S. government's official web portal to all federal, state and local government web resources and services.